createdAt,value
2015-12-25T00:00:32.411Z,1011.4
2015-12-25T00:01:32.350Z,1011.4
2015-12-25T00:02:32.306Z,1011.3
2015-12-25T00:03:32.263Z,1011.4
2015-12-25T00:04:32.202Z,1011.4
2015-12-25T00:05:32.143Z,1011.3
2015-12-25T00:06:32.100Z,1011.3
2015-12-25T00:07:32.039Z,1011.3
2015-12-25T00:08:32.058Z,1011.3
2015-12-25T00:09:31.950Z,1011.4
2015-12-25T00:10:32.313Z,1011.4
2015-12-25T00:11:31.831Z,1011.3
2015-12-25T00:12:31.788Z,1011.4
2015-12-25T00:13:31.728Z,1011.2
2015-12-25T00:14:31.669Z,1011.3
2015-12-25T00:15:31.607Z,1011.3
2015-12-25T00:16:31.563Z,1011.3
2015-12-25T00:17:31.535Z,1011.3
2015-12-25T00:18:31.460Z,1011.3
2015-12-25T00:19:31.400Z,1011.3
2015-12-25T00:20:31.356Z,1011.3
2015-12-25T00:21:31.312Z,1011.5
2015-12-25T00:22:31.252Z,1011.5
2015-12-25T00:23:31.208Z,1011.5
2015-12-25T00:24:31.148Z,1011.5
2015-12-25T00:25:31.119Z,1011.4
2015-12-25T00:26:31.029Z,1011.5
2015-12-25T00:27:31.219Z,1011.5
2015-12-25T00:28:30.940Z,1011.4
2015-12-25T00:29:30.896Z,1011.5
2015-12-25T00:30:30.852Z,1011.3
2015-12-25T00:31:30.777Z,1011.4
2015-12-25T00:32:30.748Z,1011.5
2015-12-25T00:33:30.678Z,1011.5
2015-12-25T00:34:30.821Z,1011.4
2015-12-25T00:35:30.558Z,1011.5
2015-12-25T00:36:30.515Z,1011.6
2015-12-25T00:37:30.454Z,1011.5
2015-12-25T00:38:30.457Z,1011.5
2015-12-25T00:39:29.835Z,1011.6
2015-12-25T00:40:30.306Z,1011.4
2015-12-25T00:41:30.246Z,1011.5
2015-12-25T00:42:30.203Z,1011.5
2015-12-25T00:43:30.142Z,1011.5
2015-12-25T00:44:30.084Z,1011.5
2015-12-25T00:45:30.039Z,1011.7
2015-12-25T00:46:30.010Z,1011.5
2015-12-25T00:47:29.932Z,1011.5
2015-12-25T00:48:29.872Z,1011.5
2015-12-25T00:49:29.860Z,1011.5
2015-12-25T00:50:29.784Z,1011.5
2015-12-25T00:51:29.740Z,1011.6
2015-12-25T00:52:29.665Z,1011.5
2015-12-25T00:53:29.620Z,1011.6
2015-12-25T00:54:29.561Z,1011.6
2015-12-25T00:55:29.517Z,1011.6
2015-12-25T00:56:29.489Z,1011.6
2015-12-25T00:57:29.429Z,1011.5
2015-12-25T00:58:29.353Z,1011.6
2015-12-25T00:59:29.309Z,1011.6
2015-12-25T01:00:29.249Z,1011.5
2015-12-25T01:01:29.189Z,1011.5
2015-12-25T01:02:29.145Z,1011.6
2015-12-25T01:03:29.101Z,1011.6
2015-12-25T01:04:29.261Z,1011.6
2015-12-25T01:05:28.981Z,1011.6
2015-12-25T01:06:28.922Z,1011.7
2015-12-25T01:07:28.893Z,1011.6
2015-12-25T01:08:28.833Z,1011.7
2015-12-25T01:09:29.211Z,1011.7
2015-12-25T01:10:28.917Z,1011.7
2015-12-25T01:11:28.905Z,1011.7
2015-12-25T01:12:28.625Z,1011.7
2015-12-25T01:13:28.566Z,1011.6
2015-12-25T01:14:28.740Z,1011.6
2015-12-25T01:15:28.462Z,1011.7
2015-12-25T01:16:28.434Z,1011.6
2015-12-25T01:17:28.342Z,1011.8
2015-12-25T01:18:27.548Z,1011.6
2015-12-25T01:19:28.255Z,1011.6
2015-12-25T01:20:28.210Z,1011.7
2015-12-25T01:21:28.150Z,1011.7
2015-12-25T01:22:28.106Z,1011.8
2015-12-25T01:23:28.047Z,1011.7
2015-12-25T01:24:28.019Z,1011.7
2015-12-25T01:25:27.928Z,1011.8
2015-12-25T01:26:27.883Z,1011.8
2015-12-25T01:27:27.824Z,1012
2015-12-25T01:28:27.795Z,1012.2
2015-12-25T01:29:27.563Z,1012.3
2015-12-25T01:30:27.691Z,1012.5
2015-12-25T01:31:27.613Z,1012.8
2015-12-25T01:32:27.568Z,1012.9
2015-12-25T01:33:27.509Z,1013.1
2015-12-25T01:34:27.683Z,1013.2
2015-12-25T01:35:27.405Z,1013.2
2015-12-25T01:36:27.424Z,1013.2
2015-12-25T01:37:27.286Z,1013.2
2015-12-25T01:38:27.226Z,1013.3
2015-12-25T01:39:27.182Z,1013.3
2015-12-25T01:40:27.138Z,1013.3
2015-12-25T01:41:27.078Z,1013.4
2015-12-25T01:42:27.018Z,1013.4
2015-12-25T01:43:26.958Z,1013.4
2015-12-25T01:44:26.899Z,1013.4
2015-12-25T01:45:27.136Z,1013.5
2015-12-25T01:46:26.795Z,1013.3
2015-12-25T01:47:26.766Z,1013.4
2015-12-25T01:48:25.925Z,1013.4
2015-12-25T01:49:26.631Z,1013.6
2015-12-25T01:50:26.821Z,1013.5
2015-12-25T01:51:26.512Z,1013.4
2015-12-25T01:52:26.451Z,1013.5
2015-12-25T01:53:26.408Z,1013.5
2015-12-25T01:54:26.348Z,1013.6
2015-12-25T01:55:26.304Z,1013.4
2015-12-25T01:56:26.260Z,1013.5
2015-12-25T01:57:26.185Z,1013.6
2015-12-25T01:58:26.140Z,1013.5
2015-12-25T01:59:26.080Z,1013.6
2015-12-25T02:00:26.051Z,1013.5
2015-12-25T02:01:25.960Z,1013.4
2015-12-25T02:02:25.906Z,1013.5
2015-12-25T02:03:25.861Z,1013.4
2015-12-25T02:04:25.817Z,1013.4
2015-12-25T02:05:25.759Z,1013.5
2015-12-25T02:06:25.761Z,1013.4
2015-12-25T02:07:39.326Z,1013.4
2015-12-25T02:08:25.610Z,1013.4
2015-12-25T02:09:25.528Z,1013.6
2015-12-25T02:10:25.690Z,1013.5
2015-12-25T02:11:25.389Z,1013.7
2015-12-25T02:12:25.349Z,1013.5
2015-12-25T02:13:25.293Z,1013.5
2015-12-25T02:14:25.430Z,1013.5
2015-12-25T02:15:25.147Z,1013.6
2015-12-25T02:16:25.083Z,1013.7
2015-12-25T02:17:25.019Z,1013.6
2015-12-25T02:18:24.205Z,1013.5
2015-12-25T02:19:24.909Z,1013.6
2015-12-25T02:20:24.863Z,1013.6
2015-12-25T02:21:24.801Z,1013.5
2015-12-25T02:22:24.973Z,1013.7
2015-12-25T02:23:24.693Z,1013.7
2015-12-25T02:24:24.851Z,1013.6
2015-12-25T02:25:24.587Z,1013.5
2015-12-25T02:26:24.511Z,1013.6
2015-12-25T02:27:24.466Z,1013.6
2015-12-25T02:28:24.421Z,1013.6
2015-12-25T02:29:24.360Z,1013.7
2015-12-25T02:30:24.301Z,1013.8
2015-12-25T02:31:24.241Z,1013.8
2015-12-25T02:32:24.198Z,1013.8
2015-12-25T02:33:24.137Z,1013.8
2015-12-25T02:34:24.092Z,1013.9
2015-12-25T02:35:24.048Z,1013.8
2015-12-25T02:36:23.989Z,1013.7
2015-12-25T02:37:23.945Z,1013.6
2015-12-25T02:38:23.869Z,1013.8
2015-12-25T02:39:23.826Z,1013.8
2015-12-25T02:40:23.750Z,1013.8
2015-12-25T02:41:23.689Z,1013.9
2015-12-25T02:42:23.880Z,1013.8
2015-12-25T02:43:23.602Z,1013.8
2015-12-25T02:44:23.542Z,1013.8
2015-12-25T02:45:23.685Z,1014
2015-12-25T02:46:23.656Z,1014
2015-12-25T02:47:23.378Z,1014
2015-12-25T02:48:23.334Z,1014
2015-12-25T02:49:23.258Z,1013.9
2015-12-25T02:50:23.198Z,1013.9
2015-12-25T02:51:23.185Z,1013.8
2015-12-25T02:52:23.110Z,1013.9
2015-12-25T02:53:23.457Z,1013.9
2015-12-25T02:54:22.975Z,1014
2015-12-25T02:55:22.946Z,1014
2015-12-25T02:56:22.888Z,1014
2015-12-25T02:57:22.827Z,1014
2015-12-25T02:58:22.783Z,1014
2015-12-25T02:59:22.724Z,1014
2015-12-25T03:00:22.680Z,1014
2015-12-25T03:01:22.807Z,1013.9
2015-12-25T03:02:22.590Z,1013.9
2015-12-25T03:03:22.499Z,1014
2015-12-25T03:04:22.455Z,1014.1
2015-12-25T03:05:22.396Z,1014
2015-12-25T03:06:22.335Z,1013.9
2015-12-25T03:07:22.276Z,1014.1
2015-12-25T03:08:22.482Z,1014.1
2015-12-25T03:09:22.187Z,1014
2015-12-25T03:10:22.113Z,1014
2015-12-25T03:11:22.084Z,1014.1
2015-12-25T03:12:22.024Z,1014
2015-12-25T03:13:21.965Z,1014
2015-12-25T03:14:21.905Z,1014
2015-12-25T03:15:21.860Z,1014.1
2015-12-25T03:16:21.801Z,1014.2
2015-12-25T03:17:21.741Z,1014.1
2015-12-25T03:18:21.697Z,1014.1
2015-12-25T03:19:21.621Z,1014.2
2015-12-25T03:20:21.640Z,1014
2015-12-25T03:21:21.549Z,1014.1
2015-12-25T03:22:21.473Z,1014.2
2015-12-25T03:23:21.429Z,1014.1
2015-12-25T03:24:21.370Z,1014.1
2015-12-25T03:25:21.325Z,1014.2
2015-12-25T03:26:21.250Z,1014.1
2015-12-25T03:27:21.206Z,1014.2
2015-12-25T03:28:21.143Z,1014.1
2015-12-25T03:29:21.100Z,1014.1
2015-12-25T03:30:21.242Z,1014.1
2015-12-25T03:31:20.981Z,1014.1
2015-12-25T03:32:20.936Z,1014.3
2015-12-25T03:33:20.892Z,1014.3
2015-12-25T03:34:20.817Z,1014.3
2015-12-25T03:35:20.773Z,1014.2
2015-12-25T03:36:20.729Z,1014.1
2015-12-25T03:37:20.668Z,1014.2
2015-12-25T03:38:20.609Z,1014
2015-12-25T03:39:20.798Z,1014.1
2015-12-25T03:40:20.520Z,1014.1
2015-12-25T03:41:20.461Z,1014.1
2015-12-25T03:42:20.385Z,1014.1
2015-12-25T03:43:20.342Z,1014.1
2015-12-25T03:44:20.281Z,1014.1
2015-12-25T03:45:20.237Z,1014.2
2015-12-25T03:46:20.178Z,1014.1
2015-12-25T03:47:20.118Z,1014.2
2015-12-25T03:48:20.089Z,1014.1
2015-12-25T03:49:20.014Z,1014.3
2015-12-25T03:50:19.986Z,1014.3
2015-12-25T03:51:19.911Z,1014.3
2015-12-25T03:52:19.850Z,1014.3
2015-12-25T03:53:19.806Z,1014.2
2015-12-25T03:54:19.778Z,1014.3
2015-12-25T03:55:19.921Z,1014.1
2015-12-25T03:56:19.627Z,1014.2
2015-12-25T03:57:19.613Z,1014.2
2015-12-25T03:58:19.539Z,1014.2
2015-12-25T03:59:19.494Z,1014.2
2015-12-25T04:00:19.435Z,1014.3
2015-12-25T04:01:19.375Z,1014.3
2015-12-25T04:02:19.330Z,1014.3
2015-12-25T04:03:19.271Z,1014.4
2015-12-25T04:04:19.211Z,1014.3
2015-12-25T04:05:19.151Z,1014.4
2015-12-25T04:06:19.122Z,1014.3
2015-12-25T04:07:19.266Z,1014.3
2015-12-25T04:08:18.987Z,1014.3
2015-12-25T04:09:18.944Z,1014.4
2015-12-25T04:10:18.883Z,1014.5
2015-12-25T04:11:18.840Z,1014.5
2015-12-25T04:12:18.780Z,1014.4
2015-12-25T04:13:18.735Z,1014.5
2015-12-25T04:14:18.676Z,1014.5
2015-12-25T04:15:18.613Z,1014.6
2015-12-25T04:16:18.554Z,1014.6
2015-12-25T04:17:18.713Z,1014.5
2015-12-25T04:18:18.465Z,1014.7
2015-12-25T04:19:18.405Z,1014.6
2015-12-25T04:20:17.596Z,1014.7
2015-12-25T04:21:18.286Z,1014.9
2015-12-25T04:22:18.086Z,1014.8
2015-12-25T04:23:18.182Z,1014.8
2015-12-25T04:24:18.138Z,1014.9
2015-12-25T04:25:17.329Z,1014.8
2015-12-25T04:26:18.034Z,1015
2015-12-25T04:27:18.162Z,1014.8
2015-12-25T04:28:17.899Z,1014.8
2015-12-25T04:29:18.090Z,1014.9
2015-12-25T04:30:17.811Z,1014.9
2015-12-25T04:31:17.735Z,1015
2015-12-25T04:32:17.676Z,1015
2015-12-25T04:33:17.632Z,1015.1
2015-12-25T04:34:17.587Z,1015.1
2015-12-25T04:35:17.528Z,1015.1
2015-12-25T04:36:17.467Z,1015.1
2015-12-25T04:37:17.409Z,1015.2
2015-12-25T04:38:17.426Z,1015.1
2015-12-25T04:39:17.289Z,1015.2
2015-12-25T04:40:17.260Z,1015.2
2015-12-25T04:41:16.434Z,1015
2015-12-25T04:42:17.140Z,1015.1
2015-12-25T04:43:17.081Z,1015
2015-12-25T04:44:17.240Z,1015.1
2015-12-25T04:45:16.977Z,1015
2015-12-25T04:46:16.917Z,1015
2015-12-25T04:47:16.857Z,1015
2015-12-25T04:48:16.798Z,1015.1
2015-12-25T04:49:16.942Z,1015.1
2015-12-25T04:50:16.740Z,1015.1
2015-12-25T04:51:16.650Z,1015
2015-12-25T04:52:16.590Z,1015.2
2015-12-25T04:53:16.530Z,1015.2
2015-12-25T04:54:16.471Z,1015.3
2015-12-25T04:55:16.426Z,1015.2
2015-12-25T04:56:16.366Z,1015.3
2015-12-25T04:57:16.150Z,1015.4
2015-12-25T04:58:16.262Z,1015.3
2015-12-25T04:59:16.203Z,1015.3
2015-12-25T05:00:16.143Z,1015.4
2015-12-25T05:01:16.100Z,1015.4
2015-12-25T05:02:16.039Z,1015.4
2015-12-25T05:03:15.995Z,1015.6
2015-12-25T05:04:15.183Z,1015.6
2015-12-25T05:05:16.075Z,1015.6
2015-12-25T05:06:15.828Z,1015.6
2015-12-25T05:07:15.784Z,1015.6
2015-12-25T05:08:14.974Z,1015.6
2015-12-25T05:09:15.650Z,1015.6
2015-12-25T05:10:15.605Z,1015.6
2015-12-25T05:11:15.577Z,1015.7
2015-12-25T05:12:15.501Z,1015.6
2015-12-25T05:13:15.675Z,1015.7
2015-12-25T05:14:15.382Z,1015.8
2015-12-25T05:15:15.338Z,1015.9
2015-12-25T05:16:15.277Z,1015.9
2015-12-25T05:17:15.234Z,1015.7
2015-12-25T05:18:15.174Z,1015.8
2015-12-25T05:19:15.130Z,1015.9
2015-12-25T05:20:15.086Z,1015.9
2015-12-25T05:21:15.026Z,1015.8
2015-12-25T05:22:15.154Z,1015.9
2015-12-25T05:23:15.094Z,1015.9
2015-12-25T05:24:14.862Z,1015.8
2015-12-25T05:25:14.787Z,1015.8
2015-12-25T05:26:14.744Z,1015.8
2015-12-25T05:27:14.683Z,1015.8
2015-12-25T05:28:14.639Z,1016
2015-12-25T05:29:14.563Z,1015.8
2015-12-25T05:30:14.519Z,1015.9
2015-12-25T05:31:14.474Z,1015.8
2015-12-25T05:32:14.416Z,1015.7
2015-12-25T05:33:14.355Z,1015.8
2015-12-25T05:34:14.296Z,1015.9
2015-12-25T05:35:14.235Z,1015.9
2015-12-25T05:36:14.254Z,1015.9
2015-12-25T05:37:14.196Z,1015.8
2015-12-25T05:38:14.088Z,1015.9
2015-12-25T05:39:14.029Z,1015.9
2015-12-25T05:40:13.969Z,1016
2015-12-25T05:41:13.940Z,1015.8
2015-12-25T05:42:13.865Z,1016
2015-12-25T05:43:14.054Z,1016
2015-12-25T05:44:13.761Z,1016
2015-12-25T05:45:13.701Z,1016
2015-12-25T05:46:13.641Z,1015.9
2015-12-25T05:47:13.629Z,1016.1
2015-12-25T05:48:13.585Z,1016.2
2015-12-25T05:49:13.478Z,1016.1
2015-12-25T05:50:13.399Z,1016.2
2015-12-25T05:51:13.371Z,1016.2
2015-12-25T05:52:13.311Z,1016.1
2015-12-25T05:53:13.127Z,1016.2
2015-12-25T05:54:13.193Z,1016.3
2015-12-25T05:55:13.148Z,1016.3
2015-12-25T05:56:13.087Z,1016.4
2015-12-25T05:57:13.044Z,1016.4
2015-12-25T05:58:12.968Z,1016.4
2015-12-25T05:59:12.925Z,1016.4
2015-12-25T06:00:12.865Z,1016.3
2015-12-25T06:01:12.821Z,1016.5
2015-12-25T06:02:12.761Z,1016.3
2015-12-25T06:03:12.717Z,1016.5
2015-12-25T06:04:12.657Z,1016.5
2015-12-25T06:05:12.612Z,1016.5
2015-12-25T06:06:12.804Z,1016.5
2015-12-25T06:07:12.525Z,1016.5
2015-12-25T06:08:12.434Z,1016.5
2015-12-25T06:09:12.390Z,1016.5
2015-12-25T06:10:12.330Z,1016.4
2015-12-25T06:11:12.504Z,1016.5
2015-12-25T06:12:12.210Z,1016.5
2015-12-25T06:13:12.167Z,1016.4
2015-12-25T06:14:12.106Z,1016.5
2015-12-25T06:15:12.047Z,1016.4
2015-12-25T06:16:12.425Z,1016.5
2015-12-25T06:17:11.942Z,1016.5
2015-12-25T06:18:11.914Z,1016.5
2015-12-25T06:19:11.823Z,1016.6
2015-12-25T06:20:11.811Z,1016.7
2015-12-25T06:21:11.751Z,1016.7
2015-12-25T06:22:11.926Z,1016.6
2015-12-25T06:23:11.959Z,1016.7
2015-12-25T06:24:11.915Z,1016.6
2015-12-25T06:25:11.777Z,1016.8
2015-12-25T06:26:12.014Z,1016.7
2015-12-25T06:27:11.798Z,1016.8
2015-12-25T06:28:11.347Z,1016.7
2015-12-25T06:29:11.476Z,1016.8
2015-12-25T06:30:11.291Z,1016.9
2015-12-25T06:31:11.169Z,1017
2015-12-25T06:32:11.125Z,1016.9
2015-12-25T06:33:11.065Z,1016.8
2015-12-25T06:34:11.005Z,1016.9
2015-12-25T06:35:10.960Z,1016.9
2015-12-25T06:36:10.900Z,1016.9
2015-12-25T06:37:10.857Z,1016.9
2015-12-25T06:38:10.859Z,1017
2015-12-25T06:39:10.780Z,1017
2015-12-25T06:40:10.675Z,1017
2015-12-25T06:41:10.631Z,1016.9
2015-12-25T06:42:10.586Z,1017
2015-12-25T06:43:10.527Z,1017
2015-12-25T06:44:10.451Z,1017.1
2015-12-25T06:45:10.407Z,1017.1
2015-12-25T06:46:10.347Z,1017
2015-12-25T06:47:10.303Z,1017.1
2015-12-25T06:48:09.478Z,1017
2015-12-25T06:49:10.183Z,1017
2015-12-25T06:50:10.406Z,1017.1
2015-12-25T06:51:10.080Z,1017.1
2015-12-25T06:52:09.271Z,1017.2
2015-12-25T06:53:10.179Z,1017.2
2015-12-25T06:54:09.229Z,1017.1
2015-12-25T06:55:09.919Z,1017.2
2015-12-25T06:56:09.812Z,1017
2015-12-25T06:57:09.752Z,1017.1
2015-12-25T06:58:09.708Z,1017.1
2015-12-25T06:59:09.883Z,1017.1
2015-12-25T07:00:09.588Z,1017.3
2015-12-25T07:01:09.560Z,1017.4
2015-12-25T07:02:09.485Z,1017.3
2015-12-25T07:03:09.488Z,1017.2
2015-12-25T07:04:09.366Z,1017.3
2015-12-25T07:05:09.415Z,1017.2
2015-12-25T07:06:09.309Z,1017.2
2015-12-25T07:07:09.201Z,1017.3
2015-12-25T07:08:09.174Z,1017.2
2015-12-25T07:09:09.146Z,1017.3
2015-12-25T07:10:09.054Z,1017.4
2015-12-25T07:11:08.994Z,1017.3
2015-12-25T07:12:08.996Z,1017.4
2015-12-25T07:13:08.890Z,1017.3
2015-12-25T07:14:08.861Z,1017.3
2015-12-25T07:15:08.864Z,1017.5
2015-12-25T07:16:08.836Z,1017.4
2015-12-25T07:17:08.745Z,1017.4
2015-12-25T07:18:08.638Z,1017.5
2015-12-25T07:19:08.595Z,1017.4
2015-12-25T07:20:08.518Z,1017.5
2015-12-25T07:21:08.459Z,1017.5
2015-12-25T07:22:08.399Z,1017.4
2015-12-25T07:23:08.340Z,1017.4
2015-12-25T07:24:08.279Z,1017.5
2015-12-25T07:25:08.236Z,1017.6
2015-12-25T07:26:08.175Z,1017.6
2015-12-25T07:27:07.347Z,1017.4
2015-12-25T07:28:08.350Z,1017.6
2015-12-25T07:29:08.040Z,1017.5
2015-12-25T07:30:07.950Z,1017.5
2015-12-25T07:31:07.937Z,1017.6
2015-12-25T07:32:07.081Z,1017.7
2015-12-25T07:33:07.802Z,1017.6
2015-12-25T07:34:07.742Z,1017.6
2015-12-25T07:35:07.682Z,1017.5
2015-12-25T07:36:07.685Z,1017.7
2015-12-25T07:37:07.578Z,1017.6
2015-12-25T07:38:07.628Z,1017.6
2015-12-25T07:39:07.522Z,1017.5
2015-12-25T07:40:07.446Z,1017.6
2015-12-25T07:41:07.387Z,1017.6
2015-12-25T07:42:07.299Z,1017.6
2015-12-25T07:43:07.256Z,1017.7
2015-12-25T07:44:07.258Z,1017.7
2015-12-25T07:45:07.214Z,1017.5
2015-12-25T07:46:07.123Z,1017.5
2015-12-25T07:47:07.141Z,1017.6
2015-12-25T07:48:06.972Z,1017.6
2015-12-25T07:49:06.928Z,1017.5
2015-12-25T07:50:06.868Z,1017.5
2015-12-25T07:51:06.824Z,1017.5
2015-12-25T07:52:06.765Z,1017.5
2015-12-25T07:53:06.721Z,1017.6
2015-12-25T07:54:06.755Z,1017.6
2015-12-25T07:55:06.679Z,1017.6
2015-12-25T07:56:06.556Z,1017.5
2015-12-25T07:57:06.512Z,1017.5
2015-12-25T07:58:06.640Z,1017.5
2015-12-25T07:59:06.502Z,1017.4
2015-12-25T08:00:06.442Z,1017.5
2015-12-25T08:01:06.258Z,1017.5
2015-12-25T08:02:06.261Z,1017.5
2015-12-25T08:03:06.170Z,1017.5
2015-12-25T08:04:06.313Z,1017.4
2015-12-25T08:05:06.097Z,1017.6
2015-12-25T08:06:05.990Z,1017.7
2015-12-25T08:07:06.165Z,1017.5
2015-12-25T08:08:05.979Z,1017.5
2015-12-25T08:09:05.823Z,1017.6
2015-12-25T08:10:05.811Z,1017.5
2015-12-25T08:11:05.814Z,1017.5
2015-12-25T08:12:05.707Z,1017.6
2015-12-25T08:13:05.834Z,1017.6
2015-12-25T08:14:05.556Z,1017.6
2015-12-25T08:15:05.576Z,1017.8
2015-12-25T08:16:05.453Z,1017.7
2015-12-25T08:17:05.393Z,1017.6
2015-12-25T08:18:05.318Z,1017.7
2015-12-25T08:19:05.273Z,1017.6
2015-12-25T08:20:05.323Z,1017.7
2015-12-25T08:21:05.170Z,1017.7
2015-12-25T08:22:05.110Z,1017.8
2015-12-25T08:23:05.097Z,1017.8
2015-12-25T08:24:05.006Z,1017.6
2015-12-25T08:25:04.946Z,1017.9
2015-12-25T08:26:04.948Z,1017.7
2015-12-25T08:27:04.873Z,1017.7
2015-12-25T08:28:04.782Z,1017.7
2015-12-25T08:29:04.801Z,1017.7
2015-12-25T08:30:04.912Z,1017.7
2015-12-25T08:31:04.681Z,1017.6
2015-12-25T08:32:04.559Z,1017.5
2015-12-25T08:33:04.561Z,1017.6
2015-12-25T08:34:03.798Z,1017.6
2015-12-25T08:35:04.426Z,1017.7
2015-12-25T08:36:04.429Z,1017.7
2015-12-25T08:37:04.307Z,1017.6
2015-12-25T08:38:04.247Z,1017.5
2015-12-25T08:39:04.187Z,1017.5
2015-12-25T08:40:04.128Z,1017.5
2015-12-25T08:41:04.068Z,1017.3
2015-12-25T08:42:04.024Z,1017.5
2015-12-25T08:43:03.980Z,1017.5
2015-12-25T08:44:03.904Z,1017.4
2015-12-25T08:45:03.845Z,1017.5
2015-12-25T08:46:03.816Z,1017.5
2015-12-25T08:47:03.772Z,1017.5
2015-12-25T08:48:03.791Z,1017.5
2015-12-25T08:49:04.511Z,1017.5
2015-12-25T08:50:03.592Z,1017.5
2015-12-25T08:51:03.580Z,1017.6
2015-12-25T08:52:02.754Z,1017.7
2015-12-25T08:53:03.647Z,1017.5
2015-12-25T08:54:03.385Z,1017.6
2015-12-25T08:55:03.340Z,1017.5
2015-12-25T08:56:03.438Z,1017.6
2015-12-25T08:57:03.252Z,1017.6
2015-12-25T08:58:03.238Z,1017.6
2015-12-25T08:59:03.176Z,1017.5
2015-12-25T09:00:03.101Z,1017.5
2015-12-25T09:01:03.010Z,1017.4
2015-12-25T09:02:02.966Z,1017.5
2015-12-25T09:03:02.969Z,1017.6
2015-12-25T09:04:02.909Z,1017.7
2015-12-25T09:05:02.802Z,1017.8
2015-12-25T09:06:02.758Z,1017.9
2015-12-25T09:07:02.699Z,1018
2015-12-25T09:08:02.701Z,1018
2015-12-25T09:09:02.688Z,1017.8
2015-12-25T09:10:02.551Z,1017.8
2015-12-25T09:11:02.491Z,1017.7
2015-12-25T09:12:02.447Z,1017.6
2015-12-25T09:13:02.435Z,1017.5
2015-12-25T09:14:02.359Z,1017.3
2015-12-25T09:15:02.378Z,1017.5
2015-12-25T09:16:02.318Z,1017.4
2015-12-25T09:17:02.195Z,1017.4
2015-12-25T09:18:02.198Z,1017.4
2015-12-25T09:19:02.279Z,1017.3
2015-12-25T09:20:02.031Z,1017.4
2015-12-25T09:21:02.018Z,1017.5
2015-12-25T09:22:01.927Z,1017.6
2015-12-25T09:23:01.977Z,1017.7
2015-12-25T09:24:01.839Z,1017.8
2015-12-25T09:25:01.780Z,1017.8
2015-12-25T09:26:01.845Z,1017.5
2015-12-25T09:27:01.691Z,1017.4
2015-12-25T09:28:01.678Z,1017.3
2015-12-25T09:29:01.650Z,1017.2
2015-12-25T09:30:01.528Z,1017.3
2015-12-25T09:31:01.468Z,1017.2
2015-12-25T09:32:01.454Z,1017.2
2015-12-25T09:33:01.474Z,1017.2
2015-12-25T09:34:01.335Z,1017.1
2015-12-25T09:35:01.307Z,1017.1
2015-12-25T09:36:01.215Z,1017.1
2015-12-25T09:37:01.172Z,1017
2015-12-25T09:38:01.127Z,1017
2015-12-25T09:39:01.115Z,1016.8
2015-12-25T09:40:01.023Z,1017.1
2015-12-25T09:41:01.073Z,1017.2
2015-12-25T09:42:00.982Z,1017.2
2015-12-25T09:43:00.892Z,1017.3
2015-12-25T09:44:00.847Z,1017.3
2015-12-25T09:45:00.865Z,1017.7
2015-12-25T09:46:00.759Z,1017.9
2015-12-25T09:47:00.700Z,1017.8
2015-12-25T09:48:00.998Z,1017.9
2015-12-25T09:49:00.830Z,1017.6
2015-12-25T09:50:00.675Z,1017.8
2015-12-25T09:51:00.710Z,1017.9
2015-12-25T09:52:00.444Z,1018.1
2015-12-25T09:53:00.400Z,1018
2015-12-25T09:54:00.325Z,1018.1
2015-12-25T09:55:00.281Z,1018.1
2015-12-25T09:56:00.237Z,1018
2015-12-25T09:57:00.192Z,1018.2
2015-12-25T09:58:00.117Z,1018.1
2015-12-25T09:59:00.073Z,1018.2
2015-12-25T10:00:00.075Z,1018.3
2015-12-25T10:01:00.016Z,1018.2
2015-12-25T10:01:59.941Z,1018.4
2015-12-25T10:02:59.850Z,1018.4
2015-12-25T10:03:59.806Z,1018.2
2015-12-25T10:04:59.746Z,1018.2
2015-12-25T10:05:59.702Z,1018.2
2015-12-25T10:06:59.876Z,1018.2
2015-12-25T10:07:59.582Z,1018.2
2015-12-25T10:08:59.678Z,1018.3
2015-12-25T10:09:59.963Z,1018.2
2015-12-25T10:10:59.419Z,1018.3
2015-12-25T10:11:59.374Z,1018.2
2015-12-25T10:12:59.518Z,1018.2
2015-12-25T10:13:59.271Z,1018.2
2015-12-25T10:14:59.211Z,1018.2
2015-12-25T10:15:59.151Z,1018.3
2015-12-25T10:16:59.107Z,1018.2
2015-12-25T10:17:59.063Z,1018.2
2015-12-25T10:18:59.003Z,1018.1
2015-12-25T10:19:58.943Z,1018.1
2015-12-25T10:20:58.883Z,1018.1
2015-12-25T10:21:58.855Z,1018
2015-12-25T10:22:58.763Z,1018
2015-12-25T10:23:58.719Z,1017.8
2015-12-25T10:24:58.926Z,1017.7
2015-12-25T10:25:58.631Z,1018
2015-12-25T10:26:58.571Z,1018.1
2015-12-25T10:27:58.512Z,1018.1
2015-12-25T10:28:58.452Z,1017.4
2015-12-25T10:29:58.407Z,1017.2
2015-12-25T10:30:58.363Z,1017.4
2015-12-25T10:31:58.538Z,1017.1
2015-12-25T10:32:58.260Z,1017
2015-12-25T10:33:58.215Z,1017
2015-12-25T10:34:58.150Z,1017.1
2015-12-25T10:35:58.090Z,1017.8
2015-12-25T10:36:58.045Z,1018.2
2015-12-25T10:37:57.987Z,1018
2015-12-25T10:38:57.943Z,1018.2
2015-12-25T10:39:57.914Z,1018.2
2015-12-25T10:40:57.838Z,1018
2015-12-25T10:41:57.760Z,1017.6
2015-12-25T10:42:57.763Z,1017.6
2015-12-25T10:43:57.719Z,1017.3
2015-12-25T10:44:57.612Z,1017.9
2015-12-25T10:45:57.568Z,1017.7
2015-12-25T10:46:57.525Z,1018
2015-12-25T10:47:57.480Z,1018
2015-12-25T10:48:56.654Z,1018
2015-12-25T10:49:57.361Z,1018
2015-12-25T10:50:57.317Z,1018.1
2015-12-25T10:51:57.272Z,1018
2015-12-25T10:52:57.212Z,1018.1
2015-12-25T10:53:57.153Z,1018.1
2015-12-25T10:54:57.108Z,1018.1
2015-12-25T10:55:57.049Z,1018.1
2015-12-25T10:56:57.005Z,1018.1
2015-12-25T10:57:56.945Z,1018
2015-12-25T10:58:56.901Z,1017.8
2015-12-25T10:59:56.841Z,1017.5
2015-12-25T11:00:56.781Z,1017.2
2015-12-25T11:01:56.737Z,1017.3
2015-12-25T11:02:56.693Z,1017.5
2015-12-25T11:03:56.633Z,1017.3
2015-12-25T11:04:56.574Z,1017
2015-12-25T11:05:56.513Z,1017.7
2015-12-25T11:06:56.532Z,1018
2015-12-25T11:07:56.472Z,1017.8
2015-12-25T11:08:56.585Z,1017.8
2015-12-25T11:09:56.321Z,1018
2015-12-25T11:10:56.293Z,1018.1
2015-12-25T11:11:56.249Z,1018.1
2015-12-25T11:12:56.174Z,1018
2015-12-25T11:13:56.114Z,1018.2
2015-12-25T11:14:56.069Z,1018
2015-12-25T11:15:55.998Z,1018.1
2015-12-25T11:16:55.941Z,1018
2015-12-25T11:17:55.867Z,1018.1
2015-12-25T11:18:55.811Z,1018.1
2015-12-25T11:19:55.769Z,1018.1
2015-12-25T11:20:55.908Z,1018
2015-12-25T11:21:55.625Z,1018
2015-12-25T11:22:55.577Z,1018
2015-12-25T11:23:55.527Z,1018
2015-12-25T11:24:55.682Z,1018
2015-12-25T11:25:55.403Z,1018
2015-12-25T11:26:55.341Z,1018
2015-12-25T11:27:55.310Z,1018
2015-12-25T11:28:55.248Z,1017.9
2015-12-25T11:29:55.171Z,1017.9
2015-12-25T11:30:55.141Z,1018
2015-12-25T11:31:55.081Z,1018
2015-12-25T11:32:55.020Z,1018
2015-12-25T11:33:55.163Z,1018
2015-12-25T11:34:55.134Z,1017.8
2015-12-25T11:35:54.870Z,1017.9
2015-12-25T11:36:54.794Z,1018
2015-12-25T11:37:54.750Z,1017.9
2015-12-25T11:38:54.690Z,1017.9
2015-12-25T11:39:54.646Z,1017.9
2015-12-25T11:40:54.774Z,1017.9
2015-12-25T11:41:54.776Z,1017.9
2015-12-25T11:42:54.497Z,1017.8
2015-12-25T11:43:53.687Z,1017.8
2015-12-25T11:44:54.362Z,1017.7
2015-12-25T11:45:54.318Z,1017.9
2015-12-25T11:46:54.258Z,1017.9
2015-12-25T11:47:53.449Z,1017.8
2015-12-25T11:48:54.342Z,1018
2015-12-25T11:49:54.110Z,1017.9
2015-12-25T11:50:54.051Z,1018.1
2015-12-25T11:51:54.007Z,1018
2015-12-25T11:52:53.931Z,1018
2015-12-25T11:53:53.949Z,1017.9
2015-12-25T11:54:53.843Z,1018
2015-12-25T11:55:53.768Z,1017.9
2015-12-25T11:56:53.707Z,1018
2015-12-25T11:57:53.726Z,1017.8
2015-12-25T11:58:53.681Z,1017.9
2015-12-25T11:59:53.559Z,1018
2015-12-25T12:00:53.515Z,1017.9
2015-12-25T12:01:53.455Z,1017.8
2015-12-25T12:02:53.426Z,1017.9
2015-12-25T12:03:53.351Z,1017.8
2015-12-25T12:04:53.292Z,1017.8
2015-12-25T12:05:53.248Z,1017.8
2015-12-25T12:06:53.203Z,1017.8
2015-12-25T12:07:53.141Z,1017.9
2015-12-25T12:08:53.331Z,1017.8
2015-12-25T12:09:53.037Z,1017.8
2015-12-25T12:10:52.993Z,1017.9
2015-12-25T12:11:52.933Z,1017.9
2015-12-25T12:12:52.873Z,1017.9
2015-12-25T12:13:52.814Z,1018
2015-12-25T12:14:52.754Z,1018
2015-12-25T12:15:52.711Z,1018
2015-12-25T12:16:52.681Z,1018
2015-12-25T12:17:52.588Z,1017.9
2015-12-25T12:18:52.544Z,1017.8
2015-12-25T12:19:52.500Z,1018
2015-12-25T12:20:52.439Z,1017.9
2015-12-25T12:21:52.646Z,1017.8
2015-12-25T12:22:52.320Z,1017.9
2015-12-25T12:23:52.276Z,1017.9
2015-12-25T12:24:52.233Z,1017.7
2015-12-25T12:25:52.172Z,1017.8
2015-12-25T12:26:52.113Z,1017.8
2015-12-25T12:27:51.319Z,1017.7
2015-12-25T12:28:52.008Z,1017.7
2015-12-25T12:29:51.949Z,1017.8
2015-12-25T12:30:51.906Z,1017.7
2015-12-25T12:31:51.845Z,1017.8
2015-12-25T12:32:51.801Z,1017.8
2015-12-25T12:33:51.742Z,1017.9